Tropical Cyclones
[Index]
Main Index Home Page Stock Weather Photos Extreme Storms Discussion Storm News and Storm Chasing Reports Tropical Cyclones / Hurricanes / Typhoons Weather Data and Links Wild Fires / Bushfires Weather Observation Techniques Weather Picture Catalogue Tornado Pictures and Reports Stock Video Footage and DVDs for sale
Season 1955-1956 Tropical Cyclone 195556_12 Track Map
Season 1955-1956 Summaries: [BoM-AU] [JTWC-AU] [JTWC-SIO] [JTWC-SPAC] [JTWC-SH]
<<- Previous TC | BoM 1955-1956 Season | Next TC ->>

click for intensity scale information  Lat/long Grid: Show Hide

 Date Labels: Show Hide

Bureau of Meteorology Tropical Cyclone Data

Name: 195556_12
Number: 272 / 195556_12

16 Feb 1956 01:00 UTC to 04 Mar 1956 01:00 UTC

    date/time    lat    long    hPa   cat  kts
1956-02-16 01   15.2   123.4    996                     
1956-02-17 01   16.3   122.6    990    1                
1956-02-18 01   17.7   122.0    975    2                
1956-02-18 11   18.2   122.3    975    2                
1956-02-19 01   18.7   125.0    985    2                
1956-02-20 01   20.0   128.0    990    1                
1956-02-20 08   20.3   129.2    992    1                
1956-02-20 23   19.7   131.2    996                     
1956-02-21 23   19.3   133.2    992    1                
1956-02-22 23   20.1   133.9    992    1                
1956-02-23 13   21.1   133.6                            
1956-02-23 23   20.1   133.4    995    1                
1956-02-24 23   19.0   131.3    998                     
1956-02-26 01   17.3   127.1    994    1                
1956-02-27 00   16.7   122.5                            
1956-02-27 01   16.7   122.2    980    2                
1956-02-28 01   18.7   118.8    970    3                
1956-02-29 01   19.5   117.0    960    3                
1956-03-01 01   20.1   116.2    960    3                
1956-03-02 00   21.3   114.6    970    3                
1956-03-02 01   21.4   114.3    970    3                
1956-03-02 08   22.0   113.7                            
1956-03-03 01   24.0   112.2    970    3                
1956-03-03 07   25.5   112.1    972    2                
1956-03-04 01   29.5   114.0    980    2                
Winds are 10-min average.

Tropical cyclone tracks developed by Michael Bath using data from the Bureau of Meteorology and Google Maps.


[Australian Severe Weather index] [Copyright Notice] [Email Contacts] [Search This Site] [Privacy Policy]
Document: tropical_cyclone_195556_12.htm Updated: 30 May 2013